createdAt,value
2023-07-23T00:01:08.800Z,100378.97
2023-07-23T00:03:35.326Z,100375.91
2023-07-23T00:06:01.899Z,100381.75
2023-07-23T00:08:28.522Z,100379.28
2023-07-23T00:10:58.488Z,100380.69
2023-07-23T00:13:25.713Z,100378.16
2023-07-23T00:15:52.276Z,100380.38
2023-07-23T00:18:18.785Z,100379.84
2023-07-23T00:20:45.539Z,100380.97
2023-07-23T00:23:12.162Z,100370.38
2023-07-23T00:25:38.653Z,100373.44
2023-07-23T00:28:05.327Z,100369.56
2023-07-23T00:30:31.890Z,100379.56
2023-07-23T00:32:58.429Z,100369.56
2023-07-23T00:35:24.982Z,100360.59
2023-07-23T00:37:51.480Z,100359.50
2023-07-23T00:40:18.067Z,100357.81
2023-07-23T00:42:44.595Z,100352.25
2023-07-23T00:45:11.205Z,100347.50
2023-07-23T00:47:37.916Z,100346.38
2023-07-23T00:50:04.946Z,100347.22
2023-07-23T00:52:32.123Z,100340.81
2023-07-23T00:54:58.914Z,100343.91
2023-07-23T00:57:25.634Z,100335.78
2023-07-23T00:59:52.281Z,100341.66
2023-07-23T01:02:18.915Z,100334.41
2023-07-23T01:04:45.456Z,100342.22
2023-07-23T01:07:13.003Z,100344.47
2023-07-23T01:09:40.925Z,100338.31
2023-07-23T01:12:08.608Z,100332.19
2023-07-23T01:14:36.160Z,100335.56
2023-07-23T01:17:03.380Z,100329.41
2023-07-23T01:19:29.872Z,100323.28
2023-07-23T01:22:16.617Z,100321.88
2023-07-23T01:24:43.105Z,100320.50
2023-07-23T01:27:09.689Z,100321.91
2023-07-23T01:29:36.243Z,100313.81
2023-07-23T01:32:03.082Z,100312.13
2023-07-23T01:34:30.818Z,100310.16
2023-07-23T01:36:57.448Z,100308.22
2023-07-23T01:39:24.034Z,100304.31
2023-07-23T01:41:50.651Z,100303.75
2023-07-23T01:44:17.842Z,100309.91
2023-07-23T01:46:44.339Z,100303.47
2023-07-23T01:49:10.907Z,100301.81
2023-07-23T01:51:37.407Z,100302.09
2023-07-23T01:54:04.069Z,100300.44
2023-07-23T01:56:30.550Z,100299.88
2023-07-23T01:58:56.981Z,100300.16
2023-07-23T02:01:24.115Z,100293.19
2023-07-23T02:03:50.707Z,100291.78
2023-07-23T02:06:17.301Z,100287.88
2023-07-23T02:08:43.824Z,100290.66
2023-07-23T02:11:10.288Z,100287.59
2023-07-23T02:13:36.899Z,100285.09
2023-07-23T02:16:04.056Z,100286.47
2023-07-23T02:18:31.044Z,100285.91
2023-07-23T02:20:57.642Z,100286.47
2023-07-23T02:23:25.011Z,100279.78
2023-07-23T02:25:51.694Z,100281.75
2023-07-23T02:28:18.290Z,100281.47
2023-07-23T02:30:44.989Z,100283.16
2023-07-23T02:33:11.586Z,100281.44
2023-07-23T02:35:38.527Z,100280.31
2023-07-23T02:38:05.525Z,100277.25
2023-07-23T02:40:34.378Z,100275.31
2023-07-23T02:43:02.203Z,100277.00
2023-07-23T02:45:30.341Z,100267.50
2023-07-23T02:47:56.936Z,100273.91
2023-07-23T02:50:24.165Z,100275.81
2023-07-23T02:52:50.708Z,100270.81
2023-07-23T02:55:17.537Z,100261.91
2023-07-23T02:57:44.233Z,100271.09
2023-07-23T03:00:12.700Z,100268.56
2023-07-23T03:02:39.312Z,100265.22
2023-07-23T03:05:06.436Z,100268.25
2023-07-23T03:07:33.674Z,100261.00
2023-07-23T03:10:00.269Z,100259.06
2023-07-23T03:12:26.750Z,100266.84
2023-07-23T03:14:54.475Z,100267.13
2023-07-23T03:17:21.001Z,100271.84
2023-07-23T03:19:47.533Z,100269.63
2023-07-23T03:22:14.342Z,100274.34
2023-07-23T03:24:40.951Z,100267.94
2023-07-23T03:27:07.451Z,100263.22
2023-07-23T03:29:34.043Z,100259.31
2023-07-23T03:32:00.780Z,100260.16
2023-07-23T03:34:27.386Z,100267.69
2023-07-23T03:36:53.929Z,100265.16
2023-07-23T03:39:20.405Z,100259.88
2023-07-23T03:41:50.648Z,100258.19
2023-07-23T03:44:17.119Z,100254.31
2023-07-23T03:47:04.543Z,100259.88
2023-07-23T03:49:31.158Z,100255.13
2023-07-23T03:51:59.692Z,100256.53
2023-07-23T03:54:26.664Z,100252.09
2023-07-23T03:56:54.308Z,100250.72
2023-07-23T03:59:20.801Z,100256.81
2023-07-23T04:01:47.320Z,100259.91
2023-07-23T04:04:14.162Z,100250.22
2023-07-23T04:06:40.724Z,100249.66
2023-07-23T04:09:07.203Z,100261.34
2023-07-23T04:11:33.663Z,100258.03
2023-07-23T04:14:00.139Z,100255.25
2023-07-23T04:16:26.631Z,100256.91
2023-07-23T04:18:54.512Z,100255.78
2023-07-23T04:21:23.097Z,100252.44
2023-07-23T04:23:51.492Z,100252.19
2023-07-23T04:26:19.489Z,100252.47
2023-07-23T04:28:46.718Z,100248.84
2023-07-23T04:31:13.864Z,100246.63
2023-07-23T04:33:40.703Z,100248.59
2023-07-23T04:36:08.668Z,100250.53
2023-07-23T04:38:36.245Z,100240.50
2023-07-23T04:41:03.077Z,100248.00
2023-07-23T04:43:29.735Z,100250.81
2023-07-23T04:45:56.240Z,100245.81
2023-07-23T04:48:22.938Z,100244.13
2023-07-23T04:51:10.079Z,100233.53
2023-07-23T04:53:36.645Z,100238.25
2023-07-23T04:56:05.390Z,100238.78
2023-07-23T04:58:33.022Z,100230.16
2023-07-23T05:01:05.997Z,100230.66
2023-07-23T05:03:32.716Z,100234.53
2023-07-23T05:06:03.947Z,100223.88
2023-07-23T05:08:30.502Z,100229.13
2023-07-23T05:11:01.953Z,100223.50
2023-07-23T05:13:29.572Z,100221.22
2023-07-23T05:15:58.354Z,100216.75
2023-07-23T05:18:25.234Z,100218.09
2023-07-23T05:20:51.741Z,100220.34
2023-07-23T05:23:19.492Z,100219.47
2023-07-23T05:25:46.300Z,100218.06
2023-07-23T05:28:13.129Z,100218.06
2023-07-23T05:30:39.952Z,100227.53
2023-07-23T05:33:08.704Z,100222.50
2023-07-23T05:35:35.966Z,100218.03
2023-07-23T05:38:02.442Z,100207.09
2023-07-23T05:40:31.440Z,100213.28
2023-07-23T05:43:00.571Z,100208.22
2023-07-23T05:45:27.141Z,100215.16
2023-07-23T05:47:53.648Z,100211.25
2023-07-23T05:50:20.150Z,100211.81
2023-07-23T05:52:46.663Z,100223.53
2023-07-23T05:55:13.123Z,100220.72
2023-07-23T05:57:39.732Z,100221.81
2023-07-23T06:00:07.008Z,100217.84
2023-07-23T06:02:33.537Z,100215.88
2023-07-23T06:04:59.985Z,100209.69
2023-07-23T06:07:26.489Z,100217.84
2023-07-23T06:09:53.025Z,100214.44
2023-07-23T06:12:19.700Z,100211.66
2023-07-23T06:14:46.367Z,100204.94
2023-07-23T06:17:12.899Z,100211.91
2023-07-23T06:19:39.371Z,100218.56
2023-07-23T06:22:06.130Z,100220.28
2023-07-23T06:24:32.702Z,100216.63
2023-07-23T06:26:59.267Z,100223.31
2023-07-23T06:29:26.868Z,100219.38
2023-07-23T06:31:53.729Z,100223.81
2023-07-23T06:34:20.842Z,100221.03
2023-07-23T06:36:47.716Z,100228.88
2023-07-23T06:39:14.788Z,100235.56
2023-07-23T06:41:41.934Z,100219.94
2023-07-23T06:44:08.479Z,100209.84
2023-07-23T06:46:35.072Z,100215.44
2023-07-23T06:49:01.704Z,100215.44
2023-07-23T06:51:28.339Z,100199.56
2023-07-23T06:53:55.002Z,100210.16
2023-07-23T06:56:21.661Z,100209.84
2023-07-23T06:58:48.720Z,100224.66
2023-07-23T07:01:15.190Z,100216.59
2023-07-23T07:03:41.807Z,100214.84
2023-07-23T07:06:08.311Z,100207.03
2023-07-23T07:08:34.946Z,100210.34
2023-07-23T07:11:03.870Z,100206.44
2023-07-23T07:13:31.767Z,100208.72
2023-07-23T07:15:59.009Z,100213.22
2023-07-23T07:18:26.789Z,100216.50
2023-07-23T07:21:01.083Z,100213.69
2023-07-23T07:23:28.925Z,100213.13
2023-07-23T07:25:59.492Z,100217.81
2023-07-23T07:28:26.625Z,100218.06
2023-07-23T07:31:00.811Z,100223.91
2023-07-23T07:33:28.367Z,100221.41
2023-07-23T07:35:58.979Z,100213.50
2023-07-23T07:38:26.763Z,100219.03
2023-07-23T07:40:53.846Z,100213.44
2023-07-23T07:43:20.427Z,100219.28
2023-07-23T07:45:51.370Z,100208.94
2023-07-23T07:48:21.793Z,100214.41
2023-07-23T07:50:57.878Z,100221.09
2023-07-23T07:53:24.462Z,100217.75
2023-07-23T07:55:50.981Z,100212.28
2023-07-23T07:58:18.353Z,100216.09
2023-07-23T08:00:45.084Z,100211.34
2023-07-23T08:03:12.091Z,100213.53
2023-07-23T08:05:39.133Z,100220.72
2023-07-23T08:08:07.127Z,100221.28
2023-07-23T08:10:35.496Z,100217.59
2023-07-23T08:13:03.594Z,100223.41
2023-07-23T08:15:32.740Z,100221.75
2023-07-23T08:18:00.450Z,100214.41
2023-07-23T08:20:32.164Z,100211.84
2023-07-23T08:22:59.000Z,100226.94
2023-07-23T08:25:25.857Z,100214.38
2023-07-23T08:27:54.089Z,100211.84
2023-07-23T08:30:22.052Z,100209.88
2023-07-23T08:32:49.575Z,100212.06
2023-07-23T08:35:16.380Z,100200.31
2023-07-23T08:37:43.195Z,100219.25
2023-07-23T08:40:10.314Z,100215.00
2023-07-23T08:42:54.888Z,100227.03
2023-07-23T08:45:42.742Z,100224.56
2023-07-23T08:48:15.601Z,100232.19
2023-07-23T08:50:44.720Z,100226.59
2023-07-23T08:53:13.228Z,100227.03
2023-07-23T08:55:45.034Z,100216.63
2023-07-23T08:58:17.003Z,100207.63
2023-07-23T09:00:45.146Z,100210.31
2023-07-23T09:03:13.363Z,100215.13
2023-07-23T09:05:40.715Z,100219.72
2023-07-23T09:08:08.520Z,100216.03
2023-07-23T09:10:35.096Z,100228.91
2023-07-23T09:13:12.336Z,100221.25
2023-07-23T09:15:38.887Z,100231.00
2023-07-23T09:18:05.483Z,100235.78
2023-07-23T09:20:32.214Z,100229.13
2023-07-23T09:23:06.139Z,100222.59
2023-07-23T09:25:33.260Z,100228.75
2023-07-23T09:27:59.832Z,100234.81
2023-07-23T09:30:26.998Z,100230.25
2023-07-23T09:33:03.084Z,100240.88
2023-07-23T09:35:33.675Z,100253.19
2023-07-23T09:38:01.222Z,100238.91
2023-07-23T09:40:38.960Z,100237.44
2023-07-23T09:43:06.340Z,100244.19
2023-07-23T09:45:37.600Z,100250.91
2023-07-23T09:48:15.201Z,100249.91
2023-07-23T09:50:42.517Z,100251.28
2023-07-23T09:53:10.073Z,100257.31
2023-07-23T09:55:38.222Z,100243.25
2023-07-23T09:58:07.314Z,100243.78
2023-07-23T10:00:37.341Z,100239.63
2023-07-23T10:03:06.649Z,100235.38
2023-07-23T10:05:36.410Z,100228.88
2023-07-23T10:08:07.123Z,100226.78
2023-07-23T10:10:33.626Z,100228.28
2023-07-23T10:13:00.199Z,100235.19
2023-07-23T10:15:27.685Z,100229.81
2023-07-23T10:18:00.300Z,100238.13
2023-07-23T10:20:29.739Z,100229.22
2023-07-23T10:22:57.166Z,100238.75
2023-07-23T10:25:30.649Z,100232.44
2023-07-23T10:27:59.255Z,100226.56
2023-07-23T10:30:26.728Z,100224.66
2023-07-23T10:33:12.016Z,100221.75
2023-07-23T10:35:57.284Z,100222.31
2023-07-23T10:38:24.746Z,100220.03
2023-07-23T10:40:51.668Z,100224.28
2023-07-23T10:43:18.815Z,100221.19
2023-07-23T10:46:01.546Z,100228.44
2023-07-23T10:48:51.263Z,100220.56
2023-07-23T10:51:25.377Z,100220.34
2023-07-23T10:54:03.794Z,100231.94
2023-07-23T10:56:39.917Z,100222.81
2023-07-23T10:59:17.956Z,100226.03
2023-07-23T11:01:46.949Z,100220.88
2023-07-23T11:04:15.603Z,100221.31
2023-07-23T11:06:56.872Z,100217.81
2023-07-23T11:09:38.482Z,100219.91
2023-07-23T11:12:07.047Z,100229.16
2023-07-23T11:14:36.158Z,100217.53
2023-07-23T11:17:04.935Z,100224.91
2023-07-23T11:19:32.508Z,100225.97
2023-07-23T11:22:03.910Z,100219.72
2023-07-23T11:24:31.678Z,100226.91
2023-07-23T11:27:01.014Z,100224.22
2023-07-23T11:29:31.250Z,100212.06
2023-07-23T11:32:01.923Z,100223.81
2023-07-23T11:34:28.633Z,100218.75
2023-07-23T11:36:57.175Z,100207.34
2023-07-23T11:39:25.490Z,100220.88
2023-07-23T11:41:53.211Z,100234.91
2023-07-23T11:44:20.242Z,100213.78
2023-07-23T11:46:46.850Z,100233.03
2023-07-23T11:49:14.706Z,100229.38
2023-07-23T11:51:41.558Z,100244.59
2023-07-23T11:54:11.252Z,100235.00
2023-07-23T11:56:48.992Z,100237.50
2023-07-23T11:59:19.270Z,100233.56
2023-07-23T12:01:46.892Z,100229.00
2023-07-23T12:04:13.598Z,100244.59
2023-07-23T12:06:41.347Z,100233.97
2023-07-23T12:09:12.811Z,100217.84
2023-07-23T12:11:42.758Z,100220.03
2023-07-23T12:14:09.809Z,100217.53
2023-07-23T12:16:44.668Z,100215.53
2023-07-23T12:19:16.465Z,100218.22
2023-07-23T12:21:45.361Z,100204.41
2023-07-23T12:24:33.091Z,100221.06
2023-07-23T12:27:00.923Z,100218.22
2023-07-23T12:29:29.292Z,100220.53
2023-07-23T12:32:16.328Z,100223.88
2023-07-23T12:34:45.690Z,100231.25
2023-07-23T12:37:13.194Z,100251.03
2023-07-23T12:39:39.757Z,100223.34
2023-07-23T12:42:06.566Z,100207.91
2023-07-23T12:44:33.208Z,100200.81
2023-07-23T12:46:59.999Z,100199.69
2023-07-23T12:49:26.539Z,100189.91
2023-07-23T12:51:53.052Z,100196.63
2023-07-23T12:54:19.529Z,100190.88
2023-07-23T12:56:46.082Z,100185.97
2023-07-23T12:59:13.308Z,100182.31
2023-07-23T13:01:39.946Z,100174.19
2023-07-23T13:04:06.476Z,100171.50
2023-07-23T13:06:33.109Z,100162.34
2023-07-23T13:08:59.637Z,100188.06
2023-07-23T13:11:26.084Z,100169.53
2023-07-23T13:13:52.611Z,100185.25
2023-07-23T13:16:25.179Z,100170.72
2023-07-23T13:18:51.764Z,100170.16
2023-07-23T13:21:18.283Z,100156.41
2023-07-23T13:23:44.781Z,100154.25
2023-07-23T13:26:11.818Z,100177.66
2023-07-23T13:28:38.343Z,100171.34
2023-07-23T13:31:04.896Z,100164.88
2023-07-23T13:33:31.401Z,100162.63
2023-07-23T13:35:58.022Z,100140.44
2023-07-23T13:38:24.727Z,100144.47
2023-07-23T13:40:51.965Z,100139.31
2023-07-23T13:43:18.497Z,100147.16
2023-07-23T13:45:45.030Z,100145.69
2023-07-23T13:48:11.511Z,100131.09
2023-07-23T13:50:50.411Z,100143.25
2023-07-23T13:53:17.988Z,100145.91
2023-07-23T13:55:44.546Z,100145.78
2023-07-23T13:58:11.041Z,100155.94
2023-07-23T14:00:37.655Z,100147.44
2023-07-23T14:03:04.879Z,100157.44
2023-07-23T14:05:32.487Z,100145.47
2023-07-23T14:07:59.154Z,100165.00
2023-07-23T14:10:26.192Z,100150.06
2023-07-23T14:12:52.851Z,100146.06
2023-07-23T14:15:19.431Z,100169.91
2023-07-23T14:17:46.001Z,100170.78
2023-07-23T14:20:12.575Z,100157.81
2023-07-23T14:22:39.337Z,100155.16
2023-07-23T14:25:06.009Z,100143.06
2023-07-23T14:27:32.586Z,100156.13
2023-07-23T14:29:59.124Z,100159.16
2023-07-23T14:32:25.632Z,100152.69
2023-07-23T14:34:52.248Z,100144.81
2023-07-23T14:37:18.917Z,100156.31
2023-07-23T14:39:45.565Z,100155.88
2023-07-23T14:42:12.486Z,100153.53
2023-07-23T14:44:41.012Z,100145.34
2023-07-23T14:47:08.841Z,100135.56
2023-07-23T14:49:37.463Z,100149.00
2023-07-23T14:52:04.901Z,100163.78
2023-07-23T14:54:31.467Z,100150.50
2023-07-23T14:56:57.991Z,100154.75
2023-07-23T14:59:24.480Z,100165.66
2023-07-23T15:01:51.018Z,100159.75
2023-07-23T15:04:17.686Z,100175.16
2023-07-23T15:06:44.296Z,100183.56
2023-07-23T15:09:13.260Z,100159.09
2023-07-23T15:11:41.309Z,100179.03
2023-07-23T15:14:08.258Z,100166.25
2023-07-23T15:16:35.227Z,100173.25
2023-07-23T15:19:02.211Z,100168.25
2023-07-23T15:21:29.592Z,100164.91
2023-07-23T15:23:56.909Z,100196.97
2023-07-23T15:26:26.462Z,100186.22
2023-07-23T15:28:57.204Z,100166.47
2023-07-23T15:31:23.810Z,100177.09
2023-07-23T15:33:50.328Z,100181.63
2023-07-23T15:36:16.859Z,100167.28
2023-07-23T15:38:43.302Z,100182.06
2023-07-23T15:41:11.280Z,100190.78
2023-07-23T15:43:37.863Z,100170.59
2023-07-23T15:46:04.499Z,100184.38
2023-07-23T15:48:31.049Z,100168.75
2023-07-23T15:50:57.615Z,100182.31
2023-07-23T15:53:24.119Z,100196.78
2023-07-23T15:55:51.827Z,100176.31
2023-07-23T15:58:18.323Z,100188.59
2023-07-23T16:00:44.843Z,100190.56
2023-07-23T16:03:11.515Z,100189.22
2023-07-23T16:05:38.139Z,100165.81
2023-07-23T16:08:04.972Z,100167.16
2023-07-23T16:10:31.665Z,100170.94
2023-07-23T16:12:58.209Z,100171.13
2023-07-23T16:15:25.736Z,100166.34
2023-07-23T16:17:52.415Z,100162.91
2023-07-23T16:20:19.338Z,100147.94
2023-07-23T16:22:45.840Z,100147.81
2023-07-23T16:25:12.805Z,100156.56
2023-07-23T16:27:39.314Z,100153.00
2023-07-23T16:30:06.575Z,100150.53
2023-07-23T16:32:37.740Z,100141.47
2023-07-23T16:35:05.297Z,100141.75
2023-07-23T16:37:37.743Z,100145.81
2023-07-23T16:40:05.681Z,100146.63
2023-07-23T16:42:32.462Z,100145.41
2023-07-23T16:45:01.979Z,100135.56
2023-07-23T16:47:28.543Z,100138.47
2023-07-23T16:49:55.088Z,100133.72
2023-07-23T16:52:21.604Z,100116.63
2023-07-23T16:54:49.266Z,100115.16
2023-07-23T16:57:15.823Z,100114.13
2023-07-23T16:59:44.772Z,100125.06
2023-07-23T17:02:13.281Z,100131.63
2023-07-23T17:04:40.751Z,100119.69
2023-07-23T17:07:07.256Z,100124.97
2023-07-23T17:09:33.780Z,100120.81
2023-07-23T17:12:00.321Z,100121.44
2023-07-23T17:14:26.855Z,100122.28
2023-07-23T17:16:53.413Z,100121.22
2023-07-23T17:19:20.037Z,100112.09
2023-07-23T17:21:46.662Z,100116.88
2023-07-23T17:24:13.343Z,100142.25
2023-07-23T17:26:40.376Z,100130.81
2023-07-23T17:29:07.337Z,100121.34
2023-07-23T17:31:33.790Z,100126.75
2023-07-23T17:34:00.742Z,100111.28
2023-07-23T17:36:28.088Z,100115.44
2023-07-23T17:38:54.832Z,100122.31
2023-07-23T17:41:21.379Z,100124.59
2023-07-23T17:43:48.859Z,100123.31
2023-07-23T17:46:15.545Z,100118.53
2023-07-23T17:48:44.127Z,100116.47
2023-07-23T17:51:10.590Z,100116.47
2023-07-23T17:53:38.508Z,100127.38
2023-07-23T17:56:05.917Z,100115.66
2023-07-23T17:58:33.136Z,100117.69
2023-07-23T18:00:59.696Z,100120.63
2023-07-23T18:03:26.222Z,100122.91
2023-07-23T18:05:59.959Z,100110.66
2023-07-23T18:08:26.955Z,100115.34
2023-07-23T18:10:53.519Z,100106.69
2023-07-23T18:13:20.186Z,100106.94
2023-07-23T18:15:47.265Z,100107.34
2023-07-23T18:18:13.857Z,100102.34
2023-07-23T18:20:40.350Z,100100.19
2023-07-23T18:23:06.873Z,100103.25
2023-07-23T18:25:33.770Z,100104.63
2023-07-23T18:28:00.209Z,100099.53
2023-07-23T18:30:26.715Z,100090.69
2023-07-23T18:32:53.393Z,100092.22
2023-07-23T18:35:20.011Z,100095.03
2023-07-23T18:37:47.455Z,100085.69
2023-07-23T18:40:13.944Z,100088.50
2023-07-23T18:42:40.582Z,100088.69
2023-07-23T18:45:07.884Z,100084.44
2023-07-23T18:47:34.438Z,100084.75
2023-07-23T18:50:01.002Z,100088.38
2023-07-23T18:52:28.671Z,100084.44
2023-07-23T18:54:55.698Z,100086.72
2023-07-23T18:57:22.207Z,100085.25
2023-07-23T18:59:48.816Z,100080.16
2023-07-23T19:02:15.394Z,100086.28
2023-07-23T19:04:46.653Z,100078.19
2023-07-23T19:07:14.123Z,100070.25
2023-07-23T19:09:40.950Z,100067.78
2023-07-23T19:12:07.964Z,100068.09
2023-07-23T19:14:34.556Z,100066.75
2023-07-23T19:17:01.149Z,100068.41
2023-07-23T19:19:28.410Z,100071.53
2023-07-23T19:21:54.978Z,100070.50
2023-07-23T19:24:21.557Z,100078.72
2023-07-23T19:26:48.125Z,100079.88
2023-07-23T19:29:14.576Z,100081.34
2023-07-23T19:31:42.566Z,100086.84
2023-07-23T19:34:09.334Z,100086.34
2023-07-23T19:36:35.882Z,100086.34
2023-07-23T19:39:02.436Z,100090.91
2023-07-23T19:41:28.920Z,100085.56
2023-07-23T19:43:55.441Z,100095.69
2023-07-23T19:46:21.967Z,100089.22
2023-07-23T19:48:48.576Z,100092.56
2023-07-23T19:51:15.103Z,100085.81
2023-07-23T19:53:41.702Z,100093.09
2023-07-23T19:56:08.278Z,100086.66
2023-07-23T19:58:34.748Z,100090.00
2023-07-23T20:01:01.239Z,100097.56
2023-07-23T20:03:27.775Z,100106.28
2023-07-23T20:05:54.764Z,100103.03
2023-07-23T20:08:21.253Z,100101.72
2023-07-23T20:10:47.856Z,100104.19
2023-07-23T20:13:14.361Z,100095.06
2023-07-23T20:15:40.865Z,100102.44
2023-07-23T20:18:07.406Z,100107.28
2023-07-23T20:20:33.967Z,100093.59
2023-07-23T20:23:00.487Z,100100.03
2023-07-23T20:25:27.042Z,100092.56
2023-07-23T20:27:53.565Z,100101.91
2023-07-23T20:30:20.697Z,100095.25
2023-07-23T20:32:48.308Z,100098.59
2023-07-23T20:35:16.858Z,100092.97
2023-07-23T20:37:43.906Z,100100.84
2023-07-23T20:40:11.043Z,100099.31
2023-07-23T20:42:37.767Z,100104.78
2023-07-23T20:45:04.735Z,100113.53
2023-07-23T20:47:31.366Z,100104.78
2023-07-23T20:49:57.907Z,100106.47
2023-07-23T20:52:24.504Z,100106.25
2023-07-23T20:54:50.980Z,100102.31
2023-07-23T20:57:17.511Z,100104.78
2023-07-23T20:59:44.058Z,100107.59
2023-07-23T21:02:10.558Z,100097.34
2023-07-23T21:04:37.072Z,100099.81
2023-07-23T21:07:03.864Z,100094.19
2023-07-23T21:09:31.133Z,100093.06
2023-07-23T21:11:58.395Z,100091.94
2023-07-23T21:14:24.909Z,100092.78
2023-07-23T21:16:51.418Z,100098.16
2023-07-23T21:19:17.896Z,100104.38
2023-07-23T21:21:44.424Z,100106.03
2023-07-23T21:24:10.944Z,100102.72
2023-07-23T21:26:39.429Z,100114.53
2023-07-23T21:29:05.886Z,100101.97
2023-07-23T21:31:32.401Z,100078.63
2023-07-23T21:33:58.875Z,100078.63
2023-07-23T21:36:25.400Z,100082.78
2023-07-23T21:38:52.190Z,100075.81
2023-07-23T21:41:18.670Z,100073.09
2023-07-23T21:43:45.173Z,100077.78
2023-07-23T21:46:11.738Z,100066.88
2023-07-23T21:48:38.350Z,100058.44
2023-07-23T21:51:04.826Z,100055.16
2023-07-23T21:53:31.474Z,100061.38
2023-07-23T21:55:57.958Z,100062.00
2023-07-23T21:58:24.579Z,100059.00
2023-07-23T22:00:51.080Z,100053.97
2023-07-23T22:03:18.121Z,100052.97
2023-07-23T22:05:47.664Z,100048.78
2023-07-23T22:08:15.135Z,100049.94
2023-07-23T22:10:41.787Z,100044.09
2023-07-23T22:13:08.399Z,100044.09
2023-07-23T22:15:34.874Z,100038.81
2023-07-23T22:18:01.421Z,100035.19
2023-07-23T22:20:27.972Z,100039.13
2023-07-23T22:22:54.544Z,100038.28
2023-07-23T22:25:21.029Z,100029.34
2023-07-23T22:27:47.574Z,100025.44
2023-07-23T22:30:28.982Z,100023.47
2023-07-23T22:32:57.755Z,100020.91
2023-07-23T22:35:24.385Z,100015.63
2023-07-23T22:37:50.869Z,100015.41
2023-07-23T22:40:17.361Z,100033.47
2023-07-23T22:42:46.775Z,100025.97
2023-07-23T22:45:14.530Z,100012.88
2023-07-23T22:47:41.137Z,100010.19
2023-07-23T22:50:07.926Z,100014.22
2023-07-23T22:52:37.317Z,100004.25
2023-07-23T22:55:04.415Z,100004.31
2023-07-23T22:57:31.564Z,100000.78
2023-07-23T23:00:01.342Z,100003.69
2023-07-23T23:02:28.069Z,100008.53
2023-07-23T23:04:54.604Z,100003.00
2023-07-23T23:07:21.113Z,99999.28
2023-07-23T23:09:47.711Z,99992.63
2023-07-23T23:12:14.231Z,99994.63
2023-07-23T23:14:40.716Z,99991.91
2023-07-23T23:17:07.244Z,99991.69
2023-07-23T23:19:33.751Z,99985.03
2023-07-23T23:22:00.210Z,99980.03
2023-07-23T23:24:26.723Z,99980.34
2023-07-23T23:26:53.207Z,99977.84
2023-07-23T23:29:20.169Z,99971.41
2023-07-23T23:31:46.740Z,99974.31
2023-07-23T23:34:13.261Z,99983.59
2023-07-23T23:36:39.789Z,99985.06
2023-07-23T23:39:06.423Z,99981.41
2023-07-23T23:41:32.913Z,99982.53
2023-07-23T23:43:59.390Z,99985.34
2023-07-23T23:46:26.077Z,99981.72
2023-07-23T23:48:52.645Z,99978.41
2023-07-23T23:51:21.266Z,99976.72
2023-07-23T23:53:47.976Z,99980.97
2023-07-23T23:56:14.571Z,99971.19
2023-07-23T23:58:41.109Z,99975.97
